sensor_id;sensor_type;location;lat;lon;timestamp;P1;durP1;ratioP1;P2;durP2;ratioP2
19664;SDS011;9980;51.020;7.772;2024-03-02T00:00:39;5.60;;;5.10;;
19664;SDS011;9980;51.020;7.772;2024-03-02T00:03:06;5.60;;;5.20;;
19664;SDS011;9980;51.020;7.772;2024-03-02T00:05:35;5.50;;;5.10;;
19664;SDS011;9980;51.020;7.772;2024-03-02T00:08:02;6.57;;;6.00;;
19664;SDS011;9980;51.020;7.772;2024-03-02T00:10:35;6.43;;;5.83;;
19664;SDS011;9980;51.020;7.772;2024-03-02T00:13:07;7.03;;;6.33;;
19664;SDS011;9980;51.020;7.772;2024-03-02T00:15:40;6.67;;;6.07;;
19664;SDS011;9980;51.020;7.772;2024-03-02T00:18:20;6.87;;;6.27;;
19664;SDS011;9980;51.020;7.772;2024-03-02T00:20:55;6.77;;;6.17;;
19664;SDS011;9980;51.020;7.772;2024-03-02T00:23:24;7.00;;;6.30;;
19664;SDS011;9980;51.020;7.772;2024-03-02T00:25:55;6.03;;;5.50;;
19664;SDS011;9980;51.020;7.772;2024-03-02T00:28:23;6.23;;;5.73;;
19664;SDS011;9980;51.020;7.772;2024-03-02T00:30:55;5.93;;;5.43;;
19664;SDS011;9980;51.020;7.772;2024-03-02T00:33:23;6.80;;;6.20;;
19664;SDS011;9980;51.020;7.772;2024-03-02T00:35:54;6.03;;;5.53;;
19664;SDS011;9980;51.020;7.772;2024-03-02T00:38:23;5.73;;;5.27;;
19664;SDS011;9980;51.020;7.772;2024-03-02T00:40:50;5.57;;;5.07;;
19664;SDS011;9980;51.020;7.772;2024-03-02T00:46:21;5.47;;;4.97;;
19664;SDS011;9980;51.020;7.772;2024-03-02T00:48:54;5.50;;;5.10;;
19664;SDS011;9980;51.020;7.772;2024-03-02T00:51:30;5.47;;;5.07;;
19664;SDS011;9980;51.020;7.772;2024-03-02T00:54:01;5.03;;;4.60;;
19664;SDS011;9980;51.020;7.772;2024-03-02T00:56:34;5.33;;;4.93;;
19664;SDS011;9980;51.020;7.772;2024-03-02T00:59:02;5.33;;;4.93;;
19664;SDS011;9980;51.020;7.772;2024-03-02T01:01:29;5.70;;;5.17;;
19664;SDS011;9980;51.020;7.772;2024-03-02T01:03:55;6.37;;;5.77;;
19664;SDS011;9980;51.020;7.772;2024-03-02T01:06:23;6.43;;;5.93;;
19664;SDS011;9980;51.020;7.772;2024-03-02T01:08:50;5.33;;;4.93;;
19664;SDS011;9980;51.020;7.772;2024-03-02T01:11:19;5.40;;;5.00;;
19664;SDS011;9980;51.020;7.772;2024-03-02T01:13:49;6.50;;;5.93;;
19664;SDS011;9980;51.020;7.772;2024-03-02T01:16:18;6.93;;;6.33;;
19664;SDS011;9980;51.020;7.772;2024-03-02T01:18:44;6.80;;;6.10;;
19664;SDS011;9980;51.020;7.772;2024-03-02T01:21:11;6.30;;;5.70;;
19664;SDS011;9980;51.020;7.772;2024-03-02T01:23:39;5.60;;;5.20;;
19664;SDS011;9980;51.020;7.772;2024-03-02T01:26:05;5.77;;;5.37;;
19664;SDS011;9980;51.020;7.772;2024-03-02T01:28:33;5.20;;;4.80;;
19664;SDS011;9980;51.020;7.772;2024-03-02T01:31:00;6.20;;;5.70;;
19664;SDS011;9980;51.020;7.772;2024-03-02T01:33:28;7.40;;;5.33;;
19664;SDS011;9980;51.020;7.772;2024-03-02T01:35:55;6.37;;;5.87;;
19664;SDS011;9980;51.020;7.772;2024-03-02T01:38:22;5.87;;;5.37;;
19664;SDS011;9980;51.020;7.772;2024-03-02T01:40:49;7.07;;;6.47;;
19664;SDS011;9980;51.020;7.772;2024-03-02T01:43:16;5.80;;;5.40;;
19664;SDS011;9980;51.020;7.772;2024-03-02T01:45:43;5.93;;;5.50;;
19664;SDS011;9980;51.020;7.772;2024-03-02T01:48:10;7.27;;;5.97;;
19664;SDS011;9980;51.020;7.772;2024-03-02T01:50:37;6.50;;;5.10;;
19664;SDS011;9980;51.020;7.772;2024-03-02T01:53:04;5.43;;;5.03;;
19664;SDS011;9980;51.020;7.772;2024-03-02T01:55:31;5.93;;;5.00;;
19664;SDS011;9980;51.020;7.772;2024-03-02T01:57:59;5.93;;;5.43;;
19664;SDS011;9980;51.020;7.772;2024-03-02T02:00:26;5.43;;;4.97;;
19664;SDS011;9980;51.020;7.772;2024-03-02T02:02:54;5.73;;;5.33;;
19664;SDS011;9980;51.020;7.772;2024-03-02T02:05:21;5.40;;;5.00;;
19664;SDS011;9980;51.020;7.772;2024-03-02T02:07:49;5.40;;;5.00;;
19664;SDS011;9980;51.020;7.772;2024-03-02T02:10:16;6.20;;;5.60;;
19664;SDS011;9980;51.020;7.772;2024-03-02T02:12:43;5.47;;;4.97;;
19664;SDS011;9980;51.020;7.772;2024-03-02T02:15:29;4.90;;;4.50;;
19664;SDS011;9980;51.020;7.772;2024-03-02T02:17:57;5.97;;;5.50;;
19664;SDS011;9980;51.020;7.772;2024-03-02T02:20:25;5.73;;;5.23;;
19664;SDS011;9980;51.020;7.772;2024-03-02T02:22:59;5.30;;;4.90;;
19664;SDS011;9980;51.020;7.772;2024-03-02T02:25:32;5.10;;;4.73;;
19664;SDS011;9980;51.020;7.772;2024-03-02T02:27:59;5.33;;;4.93;;
19664;SDS011;9980;51.020;7.772;2024-03-02T02:30:27;5.70;;;5.20;;
19664;SDS011;9980;51.020;7.772;2024-03-02T02:32:57;5.40;;;5.00;;
19664;SDS011;9980;51.020;7.772;2024-03-02T02:35:25;4.97;;;4.57;;
19664;SDS011;9980;51.020;7.772;2024-03-02T02:37:52;5.23;;;4.83;;
19664;SDS011;9980;51.020;7.772;2024-03-02T02:40:21;4.90;;;4.60;;
19664;SDS011;9980;51.020;7.772;2024-03-02T02:42:50;5.70;;;5.30;;
19664;SDS011;9980;51.020;7.772;2024-03-02T02:45:19;5.73;;;5.30;;
19664;SDS011;9980;51.020;7.772;2024-03-02T02:47:46;5.33;;;4.93;;
19664;SDS011;9980;51.020;7.772;2024-03-02T02:50:13;6.00;;;5.50;;
19664;SDS011;9980;51.020;7.772;2024-03-02T02:52:40;6.00;;;5.50;;
19664;SDS011;9980;51.020;7.772;2024-03-02T02:55:09;8.47;;;5.50;;
19664;SDS011;9980;51.020;7.772;2024-03-02T02:57:38;5.73;;;5.33;;
19664;SDS011;9980;51.020;7.772;2024-03-02T03:00:10;5.67;;;5.20;;
19664;SDS011;9980;51.020;7.772;2024-03-02T03:02:48;5.20;;;4.80;;
19664;SDS011;9980;51.020;7.772;2024-03-02T03:05:17;5.90;;;5.40;;
19664;SDS011;9980;51.020;7.772;2024-03-02T03:07:45;5.97;;;5.50;;
19664;SDS011;9980;51.020;7.772;2024-03-02T03:10:14;5.40;;;5.00;;
19664;SDS011;9980;51.020;7.772;2024-03-02T03:12:42;6.87;;;5.87;;
19664;SDS011;9980;51.020;7.772;2024-03-02T03:15:10;7.67;;;6.40;;
19664;SDS011;9980;51.020;7.772;2024-03-02T03:17:38;5.37;;;4.87;;
19664;SDS011;9980;51.020;7.772;2024-03-02T03:20:05;6.50;;;6.00;;
19664;SDS011;9980;51.020;7.772;2024-03-02T03:22:36;6.27;;;5.73;;
19664;SDS011;9980;51.020;7.772;2024-03-02T03:25:04;6.07;;;5.57;;
19664;SDS011;9980;51.020;7.772;2024-03-02T03:27:32;5.77;;;5.37;;
19664;SDS011;9980;51.020;7.772;2024-03-02T03:29:59;7.13;;;6.43;;
19664;SDS011;9980;51.020;7.772;2024-03-02T03:32:26;5.77;;;5.30;;
19664;SDS011;9980;51.020;7.772;2024-03-02T03:34:52;5.73;;;5.33;;
19664;SDS011;9980;51.020;7.772;2024-03-02T03:37:19;5.60;;;5.20;;
19664;SDS011;9980;51.020;7.772;2024-03-02T03:39:46;6.80;;;6.20;;
19664;SDS011;9980;51.020;7.772;2024-03-02T03:42:13;7.07;;;6.47;;
19664;SDS011;9980;51.020;7.772;2024-03-02T03:44:40;5.63;;;5.13;;
19664;SDS011;9980;51.020;7.772;2024-03-02T03:47:08;6.10;;;5.60;;
19664;SDS011;9980;51.020;7.772;2024-03-02T03:49:34;6.03;;;5.47;;
19664;SDS011;9980;51.020;7.772;2024-03-02T03:52:01;5.97;;;5.37;;
19664;SDS011;9980;51.020;7.772;2024-03-02T03:54:28;5.50;;;5.10;;
19664;SDS011;9980;51.020;7.772;2024-03-02T03:56:55;6.70;;;6.10;;
19664;SDS011;9980;51.020;7.772;2024-03-02T03:59:22;6.40;;;5.83;;
19664;SDS011;9980;51.020;7.772;2024-03-02T04:01:50;5.40;;;5.00;;
19664;SDS011;9980;51.020;7.772;2024-03-02T04:04:17;6.27;;;5.77;;
19664;SDS011;9980;51.020;7.772;2024-03-02T04:06:44;5.53;;;5.03;;
19664;SDS011;9980;51.020;7.772;2024-03-02T04:09:11;5.90;;;5.40;;
19664;SDS011;9980;51.020;7.772;2024-03-02T04:11:38;5.20;;;4.80;;
19664;SDS011;9980;51.020;7.772;2024-03-02T04:14:05;5.27;;;4.97;;
19664;SDS011;9980;51.020;7.772;2024-03-02T04:16:32;6.57;;;5.97;;
19664;SDS011;9980;51.020;7.772;2024-03-02T04:18:59;7.20;;;6.50;;
19664;SDS011;9980;51.020;7.772;2024-03-02T04:21:26;7.53;;;6.83;;
19664;SDS011;9980;51.020;7.772;2024-03-02T04:23:53;6.87;;;6.27;;
19664;SDS011;9980;51.020;7.772;2024-03-02T04:26:25;6.87;;;6.27;;
19664;SDS011;9980;51.020;7.772;2024-03-02T04:28:52;7.33;;;6.63;;
19664;SDS011;9980;51.020;7.772;2024-03-02T04:31:20;7.77;;;6.83;;
19664;SDS011;9980;51.020;7.772;2024-03-02T04:33:47;6.57;;;6.07;;
19664;SDS011;9980;51.020;7.772;2024-03-02T04:36:14;9.83;;;8.23;;
19664;SDS011;9980;51.020;7.772;2024-03-02T04:38:41;8.90;;;8.00;;
19664;SDS011;9980;51.020;7.772;2024-03-02T04:41:08;11.87;;;10.60;;
19664;SDS011;9980;51.020;7.772;2024-03-02T04:43:35;13.23;;;11.83;;
19664;SDS011;9980;51.020;7.772;2024-03-02T04:46:02;16.13;;;13.17;;
19664;SDS011;9980;51.020;7.772;2024-03-02T04:48:29;19.23;;;13.83;;
19664;SDS011;9980;51.020;7.772;2024-03-02T04:50:57;20.83;;;14.10;;
19664;SDS011;9980;51.020;7.772;2024-03-02T04:53:24;16.80;;;12.40;;
19664;SDS011;9980;51.020;7.772;2024-03-02T04:55:51;14.73;;;11.73;;
19664;SDS011;9980;51.020;7.772;2024-03-02T04:58:36;17.07;;;13.10;;
19664;SDS011;9980;51.020;7.772;2024-03-02T05:01:03;15.23;;;11.17;;
19664;SDS011;9980;51.020;7.772;2024-03-02T05:03:30;13.57;;;10.30;;
19664;SDS011;9980;51.020;7.772;2024-03-02T05:05:57;11.17;;;9.50;;
19664;SDS011;9980;51.020;7.772;2024-03-02T05:08:24;9.87;;;8.87;;
19664;SDS011;9980;51.020;7.772;2024-03-02T05:10:51;12.33;;;10.07;;
19664;SDS011;9980;51.020;7.772;2024-03-02T05:13:18;12.60;;;9.77;;
19664;SDS011;9980;51.020;7.772;2024-03-02T05:15:47;11.37;;;10.10;;
19664;SDS011;9980;51.020;7.772;2024-03-02T05:18:14;11.53;;;10.20;;
19664;SDS011;9980;51.020;7.772;2024-03-02T05:20:41;11.87;;;9.90;;
19664;SDS011;9980;51.020;7.772;2024-03-02T05:23:08;12.23;;;9.70;;
19664;SDS011;9980;51.020;7.772;2024-03-02T05:25:34;8.67;;;7.70;;
19664;SDS011;9980;51.020;7.772;2024-03-02T05:28:02;9.73;;;7.93;;
19664;SDS011;9980;51.020;7.772;2024-03-02T05:30:29;10.67;;;8.90;;
19664;SDS011;9980;51.020;7.772;2024-03-02T05:32:56;11.80;;;9.87;;
19664;SDS011;9980;51.020;7.772;2024-03-02T05:35:23;9.07;;;8.17;;
19664;SDS011;9980;51.020;7.772;2024-03-02T05:37:49;10.10;;;8.70;;
19664;SDS011;9980;51.020;7.772;2024-03-02T05:40:16;13.87;;;11.50;;
19664;SDS011;9980;51.020;7.772;2024-03-02T05:42:46;13.47;;;11.27;;
19664;SDS011;9980;51.020;7.772;2024-03-02T05:45:13;14.47;;;10.80;;
19664;SDS011;9980;51.020;7.772;2024-03-02T05:47:43;9.63;;;8.70;;
19664;SDS011;9980;51.020;7.772;2024-03-02T05:50:10;12.50;;;10.47;;
19664;SDS011;9980;51.020;7.772;2024-03-02T05:52:37;9.63;;;8.57;;
19664;SDS011;9980;51.020;7.772;2024-03-02T05:55:05;8.17;;;7.47;;
19664;SDS011;9980;51.020;7.772;2024-03-02T05:57:32;8.40;;;7.60;;
19664;SDS011;9980;51.020;7.772;2024-03-02T06:00:11;7.87;;;7.07;;
19664;SDS011;9980;51.020;7.772;2024-03-02T06:02:39;8.03;;;7.20;;
19664;SDS011;9980;51.020;7.772;2024-03-02T06:05:06;9.00;;;8.10;;
19664;SDS011;9980;51.020;7.772;2024-03-02T06:07:33;8.93;;;8.13;;
19664;SDS011;9980;51.020;7.772;2024-03-02T06:10:00;10.80;;;9.23;;
19664;SDS011;9980;51.020;7.772;2024-03-02T06:12:27;7.90;;;7.20;;
19664;SDS011;9980;51.020;7.772;2024-03-02T06:14:54;8.30;;;7.60;;
19664;SDS011;9980;51.020;7.772;2024-03-02T06:17:21;8.87;;;7.10;;
19664;SDS011;9980;51.020;7.772;2024-03-02T06:19:48;10.20;;;7.77;;
19664;SDS011;9980;51.020;7.772;2024-03-02T06:22:15;8.83;;;7.93;;
19664;SDS011;9980;51.020;7.772;2024-03-02T06:24:42;10.87;;;7.67;;
19664;SDS011;9980;51.020;7.772;2024-03-02T06:27:09;7.93;;;6.63;;
19664;SDS011;9980;51.020;7.772;2024-03-02T06:29:36;6.70;;;6.10;;
19664;SDS011;9980;51.020;7.772;2024-03-02T06:32:03;7.37;;;6.47;;
19664;SDS011;9980;51.020;7.772;2024-03-02T06:34:31;9.00;;;7.80;;
19664;SDS011;9980;51.020;7.772;2024-03-02T06:36:58;7.10;;;6.43;;
19664;SDS011;9980;51.020;7.772;2024-03-02T06:39:25;8.23;;;7.40;;
19664;SDS011;9980;51.020;7.772;2024-03-02T06:41:52;7.87;;;7.07;;
19664;SDS011;9980;51.020;7.772;2024-03-02T06:44:19;8.00;;;7.13;;
19664;SDS011;9980;51.020;7.772;2024-03-02T06:46:45;9.00;;;7.37;;
19664;SDS011;9980;51.020;7.772;2024-03-02T06:49:12;7.83;;;7.03;;
19664;SDS011;9980;51.020;7.772;2024-03-02T06:51:40;9.10;;;7.50;;
19664;SDS011;9980;51.020;7.772;2024-03-02T06:54:08;8.70;;;7.33;;
19664;SDS011;9980;51.020;7.772;2024-03-02T06:56:35;7.00;;;6.40;;
19664;SDS011;9980;51.020;7.772;2024-03-02T06:59:03;7.47;;;6.70;;
19664;SDS011;9980;51.020;7.772;2024-03-02T07:01:30;8.07;;;7.30;;
19664;SDS011;9980;51.020;7.772;2024-03-02T07:03:57;10.07;;;9.07;;
19664;SDS011;9980;51.020;7.772;2024-03-02T07:06:24;6.93;;;6.33;;
19664;SDS011;9980;51.020;7.772;2024-03-02T07:08:51;8.43;;;7.57;;
19664;SDS011;9980;51.020;7.772;2024-03-02T07:11:18;9.13;;;8.23;;
19664;SDS011;9980;51.020;7.772;2024-03-02T07:13:45;10.53;;;9.20;;
19664;SDS011;9980;51.020;7.772;2024-03-02T07:16:12;8.30;;;7.50;;
19664;SDS011;9980;51.020;7.772;2024-03-02T07:18:54;8.53;;;7.30;;
19664;SDS011;9980;51.020;7.772;2024-03-02T07:21:23;7.60;;;6.90;;
19664;SDS011;9980;51.020;7.772;2024-03-02T07:23:50;9.63;;;8.70;;
19664;SDS011;9980;51.020;7.772;2024-03-02T07:26:17;8.77;;;7.30;;
19664;SDS011;9980;51.020;7.772;2024-03-02T07:28:47;8.83;;;7.33;;
19664;SDS011;9980;51.020;7.772;2024-03-02T07:31:15;8.70;;;7.90;;
19664;SDS011;9980;51.020;7.772;2024-03-02T07:33:45;9.27;;;8.37;;
19664;SDS011;9980;51.020;7.772;2024-03-02T07:36:13;9.93;;;8.97;;
19664;SDS011;9980;51.020;7.772;2024-03-02T07:38:41;9.87;;;8.60;;
19664;SDS011;9980;51.020;7.772;2024-03-02T07:41:10;8.50;;;7.77;;
19664;SDS011;9980;51.020;7.772;2024-03-02T07:43:38;10.47;;;9.00;;
19664;SDS011;9980;51.020;7.772;2024-03-02T07:46:05;9.47;;;7.50;;
19664;SDS011;9980;51.020;7.772;2024-03-02T07:48:33;9.47;;;7.80;;
19664;SDS011;9980;51.020;7.772;2024-03-02T07:51:00;8.80;;;7.90;;
19664;SDS011;9980;51.020;7.772;2024-03-02T07:53:28;11.33;;;7.83;;
19664;SDS011;9980;51.020;7.772;2024-03-02T07:55:55;7.63;;;7.00;;
19664;SDS011;9980;51.020;7.772;2024-03-02T07:58:28;6.90;;;6.27;;
19664;SDS011;9980;51.020;7.772;2024-03-02T08:00:56;7.53;;;6.83;;
19664;SDS011;9980;51.020;7.772;2024-03-02T08:03:23;7.87;;;7.17;;
19664;SDS011;9980;51.020;7.772;2024-03-02T08:05:50;7.33;;;6.63;;
19664;SDS011;9980;51.020;7.772;2024-03-02T08:08:17;7.97;;;7.17;;
19664;SDS011;9980;51.020;7.772;2024-03-02T08:10:44;6.40;;;5.90;;
19664;SDS011;9980;51.020;7.772;2024-03-02T08:13:11;8.60;;;6.90;;
19664;SDS011;9980;51.020;7.772;2024-03-02T08:15:38;7.20;;;6.50;;
19664;SDS011;9980;51.020;7.772;2024-03-02T08:18:04;7.53;;;6.53;;
19664;SDS011;9980;51.020;7.772;2024-03-02T08:20:32;7.57;;;6.87;;
19664;SDS011;9980;51.020;7.772;2024-03-02T08:22:59;8.17;;;6.47;;
19664;SDS011;9980;51.020;7.772;2024-03-02T08:25:26;6.50;;;5.90;;
19664;SDS011;9980;51.020;7.772;2024-03-02T08:27:53;6.73;;;6.13;;
19664;SDS011;9980;51.020;7.772;2024-03-02T08:30:21;7.13;;;5.57;;
19664;SDS011;9980;51.020;7.772;2024-03-02T08:32:47;6.20;;;5.50;;
19664;SDS011;9980;51.020;7.772;2024-03-02T08:35:15;6.93;;;6.27;;
19664;SDS011;9980;51.020;7.772;2024-03-02T08:37:42;5.60;;;5.10;;
19664;SDS011;9980;51.020;7.772;2024-03-02T08:40:09;6.00;;;5.50;;
19664;SDS011;9980;51.020;7.772;2024-03-02T08:42:41;6.20;;;5.60;;
19664;SDS011;9980;51.020;7.772;2024-03-02T08:45:09;5.73;;;5.13;;
19664;SDS011;9980;51.020;7.772;2024-03-02T08:47:36;5.77;;;5.27;;
19664;SDS011;9980;51.020;7.772;2024-03-02T08:50:03;5.90;;;5.40;;
19664;SDS011;9980;51.020;7.772;2024-03-02T08:52:31;5.37;;;4.53;;
19664;SDS011;9980;51.020;7.772;2024-03-02T08:54:58;5.20;;;4.80;;
19664;SDS011;9980;51.020;7.772;2024-03-02T08:57:25;4.60;;;4.20;;
19664;SDS011;9980;51.020;7.772;2024-03-02T08:59:52;5.73;;;4.60;;
19664;SDS011;9980;51.020;7.772;2024-03-02T09:02:19;4.93;;;4.37;;
19664;SDS011;9980;51.020;7.772;2024-03-02T09:04:46;4.57;;;4.17;;
19664;SDS011;9980;51.020;7.772;2024-03-02T09:07:13;4.27;;;3.87;;
19664;SDS011;9980;51.020;7.772;2024-03-02T09:09:40;4.70;;;4.20;;
19664;SDS011;9980;51.020;7.772;2024-03-02T09:12:07;4.20;;;3.90;;
19664;SDS011;9980;51.020;7.772;2024-03-02T09:14:34;4.47;;;4.07;;
19664;SDS011;9980;51.020;7.772;2024-03-02T09:17:03;4.00;;;3.70;;
19664;SDS011;9980;51.020;7.772;2024-03-02T09:19:30;5.10;;;4.37;;
19664;SDS011;9980;51.020;7.772;2024-03-02T09:21:57;4.40;;;3.60;;
19664;SDS011;9980;51.020;7.772;2024-03-02T09:24:25;4.03;;;3.73;;
19664;SDS011;9980;51.020;7.772;2024-03-02T09:26:52;4.03;;;3.57;;
19664;SDS011;9980;51.020;7.772;2024-03-02T09:29:19;4.47;;;4.10;;
19664;SDS011;9980;51.020;7.772;2024-03-02T09:31:47;4.07;;;3.67;;
19664;SDS011;9980;51.020;7.772;2024-03-02T09:34:14;3.97;;;3.60;;
19664;SDS011;9980;51.020;7.772;2024-03-02T09:36:42;4.50;;;4.10;;
19664;SDS011;9980;51.020;7.772;2024-03-02T09:39:09;3.90;;;3.60;;
19664;SDS011;9980;51.020;7.772;2024-03-02T09:41:37;4.20;;;3.83;;
19664;SDS011;9980;51.020;7.772;2024-03-02T09:44:05;5.27;;;3.57;;
19664;SDS011;9980;51.020;7.772;2024-03-02T09:46:32;4.00;;;3.60;;
19664;SDS011;9980;51.020;7.772;2024-03-02T09:48:59;4.00;;;3.67;;
19664;SDS011;9980;51.020;7.772;2024-03-02T09:51:26;4.43;;;4.10;;
19664;SDS011;9980;51.020;7.772;2024-03-02T09:53:54;3.70;;;3.40;;
19664;SDS011;9980;51.020;7.772;2024-03-02T09:56:28;4.70;;;3.57;;
19664;SDS011;9980;51.020;7.772;2024-03-02T09:58:55;4.43;;;4.00;;
19664;SDS011;9980;51.020;7.772;2024-03-02T10:01:24;3.97;;;3.40;;
19664;SDS011;9980;51.020;7.772;2024-03-02T10:03:54;4.07;;;3.60;;
19664;SDS011;9980;51.020;7.772;2024-03-02T10:06:25;5.23;;;4.10;;
19664;SDS011;9980;51.020;7.772;2024-03-02T10:08:54;3.70;;;3.40;;
19664;SDS011;9980;51.020;7.772;2024-03-02T10:11:29;3.47;;;3.17;;
19664;SDS011;9980;51.020;7.772;2024-03-02T10:14:09;6.27;;;3.40;;
19664;SDS011;9980;51.020;7.772;2024-03-02T10:16:41;3.67;;;3.27;;
19664;SDS011;9980;51.020;7.772;2024-03-02T10:19:17;3.50;;;3.30;;
19664;SDS011;9980;51.020;7.772;2024-03-02T10:21:49;3.20;;;2.87;;
19664;SDS011;9980;51.020;7.772;2024-03-02T10:24:21;3.27;;;3.07;;
19664;SDS011;9980;51.020;7.772;2024-03-02T10:26:49;3.13;;;2.90;;
19664;SDS011;9980;51.020;7.772;2024-03-02T10:29:17;3.10;;;2.90;;
19664;SDS011;9980;51.020;7.772;2024-03-02T10:31:45;3.73;;;3.43;;
19664;SDS011;9980;51.020;7.772;2024-03-02T10:34:13;4.67;;;3.93;;
19664;SDS011;9980;51.020;7.772;2024-03-02T10:36:41;4.13;;;3.73;;
19664;SDS011;9980;51.020;7.772;2024-03-02T10:39:09;3.50;;;3.17;;
19664;SDS011;9980;51.020;7.772;2024-03-02T10:41:39;4.97;;;4.50;;
19664;SDS011;9980;51.020;7.772;2024-03-02T10:44:07;4.83;;;3.63;;
19664;SDS011;9980;51.020;7.772;2024-03-02T10:46:36;2.90;;;2.70;;
19664;SDS011;9980;51.020;7.772;2024-03-02T10:49:04;3.70;;;3.03;;
19664;SDS011;9980;51.020;7.772;2024-03-02T10:51:34;3.70;;;3.33;;
19664;SDS011;9980;51.020;7.772;2024-03-02T10:54:04;3.00;;;2.70;;
19664;SDS011;9980;51.020;7.772;2024-03-02T10:56:39;3.07;;;2.87;;
19664;SDS011;9980;51.020;7.772;2024-03-02T10:59:16;3.03;;;2.83;;
19664;SDS011;9980;51.020;7.772;2024-03-02T11:02:01;4.47;;;4.07;;
19664;SDS011;9980;51.020;7.772;2024-03-02T11:04:32;6.27;;;3.50;;
19664;SDS011;9980;51.020;7.772;2024-03-02T11:09:40;3.37;;;3.07;;
19664;SDS011;9980;51.020;7.772;2024-03-02T11:15:22;2.50;;;2.30;;
19664;SDS011;9980;51.020;7.772;2024-03-02T11:17:53;2.53;;;2.33;;
19664;SDS011;9980;51.020;7.772;2024-03-02T11:20:21;8.20;;;6.47;;
19664;SDS011;9980;51.020;7.772;2024-03-02T11:22:48;10.10;;;7.97;;
19664;SDS011;9980;51.020;7.772;2024-03-02T11:25:25;8.90;;;7.97;;
19664;SDS011;9980;51.020;7.772;2024-03-02T11:33:05;2.47;;;2.27;;
19664;SDS011;9980;51.020;7.772;2024-03-02T11:35:41;3.00;;;2.70;;
19664;SDS011;9980;51.020;7.772;2024-03-02T11:38:13;3.37;;;2.37;;
19664;SDS011;9980;51.020;7.772;2024-03-02T11:40:40;2.20;;;2.10;;
19664;SDS011;9980;51.020;7.772;2024-03-02T11:43:07;2.10;;;2.00;;
19664;SDS011;9980;51.020;7.772;2024-03-02T11:45:36;2.47;;;2.27;;
19664;SDS011;9980;51.020;7.772;2024-03-02T11:48:10;2.20;;;2.00;;
19664;SDS011;9980;51.020;7.772;2024-03-02T11:50:47;2.40;;;2.20;;
19664;SDS011;9980;51.020;7.772;2024-03-02T11:53:16;2.40;;;2.17;;
19664;SDS011;9980;51.020;7.772;2024-03-02T11:55:48;29.77;;;21.40;;
19664;SDS011;9980;51.020;7.772;2024-03-02T11:58:16;5.93;;;5.33;;
19664;SDS011;9980;51.020;7.772;2024-03-02T12:00:47;3.60;;;3.30;;
19664;SDS011;9980;51.020;7.772;2024-03-02T12:03:18;13.53;;;9.50;;
19664;SDS011;9980;51.020;7.772;2024-03-02T12:05:49;12.00;;;8.10;;
19664;SDS011;9980;51.020;7.772;2024-03-02T12:08:19;8.30;;;5.40;;
19664;SDS011;9980;51.020;7.772;2024-03-02T12:10:58;4.90;;;3.70;;
19664;SDS011;9980;51.020;7.772;2024-03-02T12:13:28;8.50;;;5.70;;
19664;SDS011;9980;51.020;7.772;2024-03-02T12:15:56;3.57;;;2.80;;
19664;SDS011;9980;51.020;7.772;2024-03-02T12:18:23;2.70;;;2.47;;
19664;SDS011;9980;51.020;7.772;2024-03-02T12:20:52;2.90;;;2.70;;
19664;SDS011;9980;51.020;7.772;2024-03-02T12:23:22;2.50;;;2.30;;
19664;SDS011;9980;51.020;7.772;2024-03-02T12:25:49;2.50;;;2.30;;
19664;SDS011;9980;51.020;7.772;2024-03-02T12:28:16;2.03;;;1.93;;
19664;SDS011;9980;51.020;7.772;2024-03-02T12:30:44;2.47;;;2.27;;
19664;SDS011;9980;51.020;7.772;2024-03-02T12:33:11;2.70;;;2.40;;
19664;SDS011;9980;51.020;7.772;2024-03-02T12:35:38;5.03;;;2.50;;
19664;SDS011;9980;51.020;7.772;2024-03-02T12:38:07;2.90;;;2.70;;
19664;SDS011;9980;51.020;7.772;2024-03-02T12:40:34;2.30;;;2.20;;
19664;SDS011;9980;51.020;7.772;2024-03-02T12:43:04;2.97;;;2.50;;
19664;SDS011;9980;51.020;7.772;2024-03-02T12:45:32;2.17;;;2.03;;
19664;SDS011;9980;51.020;7.772;2024-03-02T12:48:01;2.77;;;2.10;;
19664;SDS011;9980;51.020;7.772;2024-03-02T12:50:30;2.37;;;2.17;;
19664;SDS011;9980;51.020;7.772;2024-03-02T12:52:58;2.67;;;2.47;;
19664;SDS011;9980;51.020;7.772;2024-03-02T12:55:25;2.37;;;2.27;;
19664;SDS011;9980;51.020;7.772;2024-03-02T12:57:52;2.20;;;2.10;;
19664;SDS011;9980;51.020;7.772;2024-03-02T13:00:20;3.00;;;1.97;;
19664;SDS011;9980;51.020;7.772;2024-03-02T13:02:49;2.30;;;2.10;;
19664;SDS011;9980;51.020;7.772;2024-03-02T13:05:18;2.40;;;2.20;;
19664;SDS011;9980;51.020;7.772;2024-03-02T13:07:47;2.40;;;2.20;;
19664;SDS011;9980;51.020;7.772;2024-03-02T13:10:15;2.53;;;2.20;;
19664;SDS011;9980;51.020;7.772;2024-03-02T13:12:43;2.23;;;2.10;;
19664;SDS011;9980;51.020;7.772;2024-03-02T13:15:10;3.00;;;2.63;;
19664;SDS011;9980;51.020;7.772;2024-03-02T13:17:42;2.87;;;2.67;;
19664;SDS011;9980;51.020;7.772;2024-03-02T13:20:12;2.60;;;2.40;;
19664;SDS011;9980;51.020;7.772;2024-03-02T13:22:40;2.30;;;2.20;;
19664;SDS011;9980;51.020;7.772;2024-03-02T13:25:07;2.80;;;1.90;;
19664;SDS011;9980;51.020;7.772;2024-03-02T13:27:36;2.30;;;2.03;;
19664;SDS011;9980;51.020;7.772;2024-03-02T13:30:04;1.90;;;1.80;;
19664;SDS011;9980;51.020;7.772;2024-03-02T13:32:32;1.80;;;1.70;;
19664;SDS011;9980;51.020;7.772;2024-03-02T13:34:59;1.80;;;1.70;;
19664;SDS011;9980;51.020;7.772;2024-03-02T13:37:26;2.43;;;1.93;;
19664;SDS011;9980;51.020;7.772;2024-03-02T13:39:53;2.43;;;1.90;;
19664;SDS011;9980;51.020;7.772;2024-03-02T13:42:20;1.93;;;1.83;;
19664;SDS011;9980;51.020;7.772;2024-03-02T13:44:48;1.90;;;1.80;;
19664;SDS011;9980;51.020;7.772;2024-03-02T13:47:17;1.90;;;1.80;;
19664;SDS011;9980;51.020;7.772;2024-03-02T13:49:44;2.50;;;2.30;;
19664;SDS011;9980;51.020;7.772;2024-03-02T13:52:13;2.97;;;2.30;;
19664;SDS011;9980;51.020;7.772;2024-03-02T13:54:41;2.23;;;1.93;;
19664;SDS011;9980;51.020;7.772;2024-03-02T13:57:10;2.23;;;2.03;;
19664;SDS011;9980;51.020;7.772;2024-03-02T13:59:38;2.23;;;2.03;;
19664;SDS011;9980;51.020;7.772;2024-03-02T14:02:08;2.27;;;1.90;;
19664;SDS011;9980;51.020;7.772;2024-03-02T14:04:35;1.97;;;1.87;;
19664;SDS011;9980;51.020;7.772;2024-03-02T14:07:04;2.03;;;1.83;;
19664;SDS011;9980;51.020;7.772;2024-03-02T14:09:33;1.60;;;1.50;;
19664;SDS011;9980;51.020;7.772;2024-03-02T14:12:01;2.07;;;1.97;;
19664;SDS011;9980;51.020;7.772;2024-03-02T14:14:29;2.27;;;2.07;;
19664;SDS011;9980;51.020;7.772;2024-03-02T14:16:56;2.30;;;2.10;;
19664;SDS011;9980;51.020;7.772;2024-03-02T14:19:26;2.03;;;1.83;;
19664;SDS011;9980;51.020;7.772;2024-03-02T14:21:53;1.97;;;1.77;;
19664;SDS011;9980;51.020;7.772;2024-03-02T14:24:20;3.20;;;1.50;;
19664;SDS011;9980;51.020;7.772;2024-03-02T14:26:50;1.60;;;1.50;;
19664;SDS011;9980;51.020;7.772;2024-03-02T14:29:31;1.80;;;1.70;;
19664;SDS011;9980;51.020;7.772;2024-03-02T14:32:02;1.50;;;1.40;;
19664;SDS011;9980;51.020;7.772;2024-03-02T14:34:30;1.40;;;1.30;;
19664;SDS011;9980;51.020;7.772;2024-03-02T14:36:57;1.67;;;1.57;;
19664;SDS011;9980;51.020;7.772;2024-03-02T14:39:25;2.40;;;1.60;;
19664;SDS011;9980;51.020;7.772;2024-03-02T14:41:53;1.40;;;1.30;;
19664;SDS011;9980;51.020;7.772;2024-03-02T14:44:21;1.73;;;1.50;;
19664;SDS011;9980;51.020;7.772;2024-03-02T14:46:48;1.90;;;1.30;;
19664;SDS011;9980;51.020;7.772;2024-03-02T14:49:16;1.40;;;1.30;;
19664;SDS011;9980;51.020;7.772;2024-03-02T14:51:44;1.93;;;1.40;;
19664;SDS011;9980;51.020;7.772;2024-03-02T14:54:11;2.03;;;1.60;;
19664;SDS011;9980;51.020;7.772;2024-03-02T14:56:38;1.50;;;1.40;;
19664;SDS011;9980;51.020;7.772;2024-03-02T14:59:05;2.47;;;1.40;;
19664;SDS011;9980;51.020;7.772;2024-03-02T15:01:32;1.57;;;1.33;;
19664;SDS011;9980;51.020;7.772;2024-03-02T15:03:59;1.80;;;1.40;;
19664;SDS011;9980;51.020;7.772;2024-03-02T15:06:26;1.50;;;1.40;;
19664;SDS011;9980;51.020;7.772;2024-03-02T15:08:53;1.40;;;1.30;;
19664;SDS011;9980;51.020;7.772;2024-03-02T15:11:21;1.20;;;1.10;;
19664;SDS011;9980;51.020;7.772;2024-03-02T15:13:49;1.20;;;1.20;;
19664;SDS011;9980;51.020;7.772;2024-03-02T15:16:15;1.30;;;1.20;;
19664;SDS011;9980;51.020;7.772;2024-03-02T15:18:43;1.27;;;1.17;;
19664;SDS011;9980;51.020;7.772;2024-03-02T15:21:13;1.40;;;1.30;;